createdAt,value
2022-09-10T00:01:42.276Z,85.01
2022-09-10T00:04:13.115Z,84.62
2022-09-10T00:06:43.650Z,84.39
2022-09-10T00:09:13.543Z,84.37
2022-09-10T00:12:01.831Z,84.48
2022-09-10T00:14:30.850Z,84.80
2022-09-10T00:16:58.688Z,84.99
2022-09-10T00:19:27.411Z,85.07
2022-09-10T00:21:57.736Z,85.27
2022-09-10T00:24:32.160Z,85.41
2022-09-10T00:27:01.221Z,85.40
2022-09-10T00:29:32.360Z,85.28
2022-09-10T00:32:07.637Z,85.37
2022-09-10T00:34:36.086Z,85.91
2022-09-10T00:37:06.885Z,85.61
2022-09-10T00:39:38.735Z,85.46
2022-09-10T00:42:11.265Z,85.22
2022-09-10T00:44:47.622Z,85.51
2022-09-10T00:47:42.166Z,85.65
2022-09-10T00:50:40.822Z,85.53
2022-09-10T00:53:15.507Z,85.44
2022-09-10T00:55:52.809Z,85.29
2022-09-10T00:58:23.990Z,85.62
2022-09-10T01:00:57.211Z,85.95
2022-09-10T01:03:32.594Z,86.07
2022-09-10T01:06:03.380Z,86.11
2022-09-10T01:08:30.812Z,86.28
2022-09-10T01:11:20.684Z,86.44
2022-09-10T01:14:17.599Z,86.49
2022-09-10T01:17:06.856Z,86.36
2022-09-10T01:20:14.356Z,86.64
2022-09-10T01:22:49.108Z,86.58
2022-09-10T01:25:38.863Z,86.52
2022-09-10T01:28:19.245Z,86.86
2022-09-10T01:30:57.840Z,86.94
2022-09-10T01:33:37.511Z,86.89
2022-09-10T01:36:16.047Z,86.99
2022-09-10T01:38:46.653Z,87.25
2022-09-10T01:41:16.143Z,87.43
2022-09-10T01:43:47.502Z,87.41
2022-09-10T01:46:57.363Z,87.30
2022-09-10T01:49:57.140Z,87.27
2022-09-10T01:52:42.321Z,87.52
2022-09-10T01:55:31.195Z,87.42
2022-09-10T01:58:04.981Z,87.50
2022-09-10T02:00:45.825Z,87.41
2022-09-10T02:03:19.963Z,87.45
2022-09-10T02:05:54.515Z,87.69
2022-09-10T02:08:31.031Z,87.65
2022-09-10T02:11:05.734Z,87.70
2022-09-10T02:13:37.385Z,87.83
2022-09-10T02:16:35.514Z,87.85
2022-09-10T02:19:07.112Z,87.87
2022-09-10T02:21:36.310Z,87.77
2022-09-10T02:24:12.659Z,87.93
2022-09-10T02:26:43.982Z,88.25
2022-09-10T02:29:15.571Z,88.07
2022-09-10T02:31:46.786Z,87.96
2022-09-10T02:34:16.005Z,88.23
2022-09-10T02:36:49.623Z,87.84
2022-09-10T02:39:19.822Z,87.84
2022-09-10T02:41:48.426Z,87.88
2022-09-10T02:44:17.756Z,87.78
2022-09-10T02:46:47.684Z,87.95
2022-09-10T02:49:18.441Z,87.94
2022-09-10T02:51:48.658Z,87.98
2022-09-10T02:54:19.289Z,88.19
2022-09-10T02:57:07.733Z,88.07
2022-09-10T02:59:36.613Z,87.90
2022-09-10T03:02:04.927Z,88.17
2022-09-10T03:04:33.938Z,88.21
2022-09-10T03:07:04.597Z,88.18
2022-09-10T03:09:32.114Z,88.32
2022-09-10T03:12:01.661Z,88.26
2022-09-10T03:14:31.480Z,88.10
2022-09-10T03:16:59.930Z,88.25
2022-09-10T03:19:27.240Z,88.27
2022-09-10T03:21:54.952Z,88.11
2022-09-10T03:24:22.180Z,88.20
2022-09-10T03:26:49.944Z,88.43
2022-09-10T03:29:22.303Z,88.45
2022-09-10T03:31:51.586Z,88.56
2022-09-10T03:34:20.228Z,88.49
2022-09-10T03:36:48.887Z,88.34
2022-09-10T03:39:15.900Z,88.33
2022-09-10T03:41:45.061Z,88.49
2022-09-10T03:44:14.500Z,88.30
2022-09-10T03:46:41.386Z,88.53
2022-09-10T03:49:09.723Z,88.72
2022-09-10T03:51:37.464Z,88.91
2022-09-10T03:54:05.958Z,88.81
2022-09-10T03:56:34.531Z,88.88
2022-09-10T03:59:02.450Z,88.49
2022-09-10T04:01:29.889Z,88.39
2022-09-10T04:03:58.522Z,88.44
2022-09-10T04:06:27.589Z,88.30
2022-09-10T04:08:56.197Z,88.70
2022-09-10T04:11:26.834Z,88.75
2022-09-10T04:13:56.404Z,88.70
2022-09-10T04:16:24.704Z,88.43
2022-09-10T04:18:51.883Z,88.47
2022-09-10T04:21:20.084Z,88.59
2022-09-10T04:23:56.532Z,88.47
2022-09-10T04:26:26.732Z,88.45
2022-09-10T04:28:54.971Z,88.40
2022-09-10T04:31:23.775Z,88.32
2022-09-10T04:33:54.942Z,88.36
2022-09-10T04:36:29.588Z,88.55
2022-09-10T04:38:59.926Z,88.57
2022-09-10T04:41:27.472Z,88.44
2022-09-10T04:43:54.977Z,88.66
2022-09-10T04:46:25.689Z,88.77
2022-09-10T04:48:54.585Z,88.74
2022-09-10T04:51:24.520Z,88.50
2022-09-10T04:53:53.414Z,88.47
2022-09-10T04:56:23.430Z,88.60
2022-09-10T04:58:53.890Z,88.58
2022-09-10T05:01:23.862Z,88.65
2022-09-10T05:03:52.597Z,88.60
2022-09-10T05:06:19.860Z,88.74
2022-09-10T05:08:48.875Z,88.48
2022-09-10T05:11:19.121Z,88.55
2022-09-10T05:13:48.857Z,88.47
2022-09-10T05:16:20.991Z,88.40
2022-09-10T05:18:47.823Z,88.43
2022-09-10T05:21:18.038Z,88.34
2022-09-10T05:23:46.061Z,88.24
2022-09-10T05:26:14.039Z,88.12
2022-09-10T05:28:41.978Z,88.42
2022-09-10T05:31:12.497Z,88.28
2022-09-10T05:33:41.047Z,88.55
2022-09-10T05:36:10.469Z,88.41
2022-09-10T05:38:40.189Z,87.97
2022-09-10T05:41:11.297Z,87.76
2022-09-10T05:43:43.976Z,87.60
2022-09-10T05:46:11.861Z,87.52
2022-09-10T05:48:43.046Z,87.64
2022-09-10T05:51:11.642Z,87.43
2022-09-10T05:53:42.447Z,87.28
2022-09-10T05:56:12.426Z,87.32
2022-09-10T05:58:41.109Z,87.21
2022-09-10T06:01:10.571Z,87.18
2022-09-10T06:03:38.081Z,87.16
2022-09-10T06:06:06.509Z,87.09
2022-09-10T06:08:35.322Z,86.76
2022-09-10T06:11:09.902Z,86.58
2022-09-10T06:13:41.581Z,86.18
2022-09-10T06:16:09.223Z,85.96
2022-09-10T06:18:37.646Z,85.32
2022-09-10T06:21:11.306Z,84.81
2022-09-10T06:23:38.875Z,84.69
2022-09-10T06:26:17.834Z,84.44
2022-09-10T06:28:52.380Z,84.01
2022-09-10T06:31:19.850Z,83.94
2022-09-10T06:33:48.567Z,83.85
2022-09-10T06:36:35.796Z,83.77
2022-09-10T06:39:03.965Z,83.59
2022-09-10T06:41:42.309Z,83.34
2022-09-10T06:44:14.693Z,83.56
2022-09-10T06:49:35.871Z,83.03
2022-09-10T06:52:03.098Z,82.80
2022-09-10T06:54:31.478Z,82.69
2022-09-10T06:57:13.253Z,82.59
2022-09-10T06:59:41.431Z,82.63
2022-09-10T07:02:09.158Z,82.45
2022-09-10T07:04:36.430Z,82.67
2022-09-10T07:07:03.374Z,82.32
2022-09-10T07:09:31.385Z,82.01
2022-09-10T07:11:59.719Z,82.03
2022-09-10T07:14:30.347Z,82.13
2022-09-10T07:16:58.821Z,82.25
2022-09-10T07:19:30.230Z,82.31
2022-09-10T07:21:58.535Z,82.12
2022-09-10T07:24:25.212Z,82.03
2022-09-10T07:27:10.694Z,81.83
2022-09-10T07:29:38.472Z,81.50
2022-09-10T07:32:13.446Z,81.57
2022-09-10T07:34:40.594Z,81.23
2022-09-10T07:37:07.375Z,80.78
2022-09-10T07:39:35.101Z,80.61
2022-09-10T07:42:02.476Z,80.76
2022-09-10T07:44:35.372Z,80.44
2022-09-10T07:47:03.063Z,80.29
2022-09-10T07:49:30.909Z,79.72
2022-09-10T07:52:00.004Z,78.95
2022-09-10T07:54:32.423Z,78.00
2022-09-10T07:57:00.583Z,76.19
2022-09-10T07:59:29.848Z,75.80
2022-09-10T08:02:00.462Z,75.30
2022-09-10T08:04:37.262Z,74.21
2022-09-10T08:07:08.449Z,74.28
2022-09-10T08:09:38.574Z,74.12
2022-09-10T08:12:07.358Z,73.75
2022-09-10T08:14:37.612Z,72.66
2022-09-10T08:17:05.050Z,72.38
2022-09-10T08:19:36.199Z,70.12
2022-09-10T08:22:03.649Z,69.60
2022-09-10T08:24:38.624Z,68.83
2022-09-10T08:27:07.599Z,69.39
2022-09-10T08:29:34.471Z,69.80
2022-09-10T08:32:01.738Z,69.85
2022-09-10T08:34:31.189Z,68.99
2022-09-10T08:37:07.282Z,66.81
2022-09-10T08:39:36.723Z,66.36
2022-09-10T08:42:08.818Z,66.34
2022-09-10T08:44:49.705Z,66.26
2022-09-10T08:47:43.221Z,66.36
2022-09-10T08:50:28.770Z,65.31
2022-09-10T08:53:04.760Z,65.74
2022-09-10T08:55:35.631Z,65.92
2022-09-10T08:58:23.005Z,65.43
2022-09-10T09:00:57.186Z,61.95
2022-09-10T09:03:38.955Z,61.56
2022-09-10T09:06:21.545Z,61.73
2022-09-10T09:08:51.312Z,62.06
2022-09-10T09:11:34.310Z,63.06
2022-09-10T09:14:25.657Z,63.26
2022-09-10T09:17:26.168Z,63.09
2022-09-10T09:20:04.186Z,62.10
2022-09-10T09:23:04.619Z,61.12
2022-09-10T09:25:45.504Z,61.79
2022-09-10T09:28:36.231Z,60.95
2022-09-10T09:31:22.510Z,60.97
2022-09-10T09:33:56.714Z,61.26
2022-09-10T09:36:34.889Z,62.37
2022-09-10T09:39:16.615Z,61.93
2022-09-10T09:41:52.443Z,60.44
2022-09-10T09:44:31.480Z,60.67
2022-09-10T09:46:58.923Z,59.64
2022-09-10T09:49:26.370Z,59.48
2022-09-10T09:51:55.179Z,59.67
2022-09-10T09:57:19.868Z,59.73
2022-09-10T09:59:49.296Z,59.82
2022-09-10T10:02:19.397Z,59.54
2022-09-10T10:05:04.996Z,59.49
2022-09-10T10:07:35.506Z,59.77
2022-09-10T10:10:07.439Z,59.60
2022-09-10T10:12:47.685Z,58.90
2022-09-10T10:15:42.069Z,58.16
2022-09-10T10:18:23.819Z,57.64
2022-09-10T10:21:09.922Z,57.65
2022-09-10T10:23:38.436Z,57.05
2022-09-10T10:26:20.300Z,56.33
2022-09-10T10:28:49.135Z,56.09
2022-09-10T10:31:16.543Z,55.87
2022-09-10T10:34:03.991Z,56.61
2022-09-10T10:37:01.771Z,55.99
2022-09-10T10:39:45.134Z,56.00
2022-09-10T10:42:23.989Z,55.01
2022-09-10T10:45:08.567Z,54.66
2022-09-10T10:48:11.395Z,55.05
2022-09-10T10:50:54.325Z,54.64
2022-09-10T10:53:48.076Z,52.52
2022-09-10T10:56:29.261Z,53.59
2022-09-10T10:59:18.426Z,53.24
2022-09-10T11:02:32.930Z,53.11
2022-09-10T11:05:21.579Z,53.58
2022-09-10T11:07:49.623Z,52.67
2022-09-10T11:10:43.163Z,52.84
2022-09-10T11:13:34.995Z,53.73
2022-09-10T11:16:09.281Z,52.65
2022-09-10T11:18:46.818Z,52.79
2022-09-10T11:21:35.058Z,51.14
2022-09-10T11:24:17.330Z,51.79
2022-09-10T11:26:53.503Z,51.90
2022-09-10T11:29:38.822Z,52.23
2022-09-10T11:32:18.071Z,50.76
2022-09-10T11:34:50.513Z,50.81
2022-09-10T11:37:26.195Z,50.39
2022-09-10T11:39:57.841Z,50.07
2022-09-10T11:42:25.147Z,50.19
2022-09-10T11:45:07.415Z,49.97
2022-09-10T11:47:42.499Z,49.73
2022-09-10T11:50:32.280Z,50.17
2022-09-10T11:53:03.323Z,50.30
2022-09-10T11:55:59.547Z,51.19
2022-09-10T11:58:44.252Z,51.25
2022-09-10T12:01:19.798Z,51.63
2022-09-10T12:04:14.524Z,51.96
2022-09-10T12:07:26.217Z,51.96
2022-09-10T12:10:14.660Z,51.14
2022-09-10T12:12:49.747Z,50.24
2022-09-10T12:15:21.781Z,48.67
2022-09-10T12:17:54.744Z,49.13
2022-09-10T12:20:29.900Z,47.02
2022-09-10T12:22:58.150Z,46.64
2022-09-10T12:25:34.219Z,45.52
2022-09-10T12:28:08.268Z,45.53
2022-09-10T12:30:38.633Z,46.79
2022-09-10T12:33:12.638Z,47.99
2022-09-10T12:35:49.952Z,47.28
2022-09-10T12:38:45.149Z,48.35
2022-09-10T12:41:20.606Z,48.16
2022-09-10T12:44:34.264Z,48.29
2022-09-10T12:47:13.371Z,48.58
2022-09-10T12:49:57.728Z,49.35
2022-09-10T12:52:27.798Z,50.62
2022-09-10T12:55:02.730Z,51.65
2022-09-10T12:58:08.286Z,52.33
2022-09-10T13:01:17.569Z,52.46
2022-09-10T13:03:58.139Z,52.31
2022-09-10T13:06:39.159Z,51.58
2022-09-10T13:09:19.198Z,49.95
2022-09-10T13:11:50.654Z,50.15
2022-09-10T13:14:23.669Z,50.31
2022-09-10T13:16:50.131Z,50.21
2022-09-10T13:19:20.052Z,50.22
2022-09-10T13:21:48.676Z,50.38
2022-09-10T13:24:33.953Z,50.67
2022-09-10T13:27:12.631Z,51.10
2022-09-10T13:29:43.631Z,51.20
2022-09-10T13:32:37.596Z,51.67
2022-09-10T13:35:16.926Z,51.89
2022-09-10T13:37:59.827Z,51.89
2022-09-10T13:40:48.170Z,52.02
2022-09-10T13:43:37.429Z,51.57
2022-09-10T13:46:10.079Z,51.18
2022-09-10T13:48:50.466Z,50.56
2022-09-10T13:51:28.374Z,50.22
2022-09-10T13:54:08.504Z,50.16
2022-09-10T13:56:36.690Z,49.92
2022-09-10T13:59:04.673Z,49.24
2022-09-10T14:01:54.470Z,48.88
2022-09-10T14:04:34.966Z,48.73
2022-09-10T14:07:25.128Z,48.82
2022-09-10T14:09:56.110Z,48.88
2022-09-10T14:12:27.022Z,49.26
2022-09-10T14:14:58.625Z,49.32
2022-09-10T14:17:34.426Z,49.34
2022-09-10T14:20:22.681Z,48.73
2022-09-10T14:22:57.997Z,48.55
2022-09-10T14:25:30.496Z,47.63
2022-09-10T14:28:15.634Z,45.15
2022-09-10T14:30:45.432Z,45.62
2022-09-10T14:33:25.116Z,44.60
2022-09-10T14:35:52.565Z,43.09
2022-09-10T14:38:28.744Z,41.96
2022-09-10T14:41:16.547Z,41.57
2022-09-10T14:43:43.284Z,41.43
2022-09-10T14:46:32.422Z,40.86
2022-09-10T14:48:59.038Z,38.77
2022-09-10T14:51:27.380Z,39.07
2022-09-10T14:53:56.612Z,38.98
2022-09-10T14:56:32.268Z,38.76
2022-09-10T14:59:12.644Z,37.68
2022-09-10T15:01:44.874Z,38.47
2022-09-10T15:04:22.907Z,38.94
2022-09-10T15:06:57.478Z,38.64
2022-09-10T15:09:26.634Z,38.16
2022-09-10T15:11:58.464Z,37.85
2022-09-10T15:14:25.657Z,37.50
2022-09-10T15:16:52.258Z,37.33
2022-09-10T15:19:19.222Z,37.13
2022-09-10T15:21:46.141Z,37.09
2022-09-10T15:24:16.522Z,37.13
2022-09-10T15:26:43.732Z,37.40
2022-09-10T15:29:11.134Z,37.86
2022-09-10T15:45:28.304Z,41.52
2022-09-10T15:57:00.433Z,43.18
2022-09-10T15:59:27.745Z,44.29
2022-09-10T16:01:54.229Z,45.35
2022-09-10T16:04:21.249Z,50.64
2022-09-10T16:06:47.908Z,53.92
2022-09-10T16:09:15.108Z,54.46
2022-09-10T16:11:42.928Z,55.43
2022-09-10T16:14:12.988Z,56.29
2022-09-10T16:16:41.032Z,57.04
2022-09-10T16:19:08.790Z,57.47
2022-09-10T16:21:37.495Z,57.76
2022-09-10T16:24:06.330Z,57.70
2022-09-10T16:26:36.784Z,57.73
2022-09-10T16:29:06.406Z,58.52
2022-09-10T16:31:38.921Z,59.39
2022-09-10T16:34:09.579Z,60.72
2022-09-10T16:36:37.417Z,62.25
2022-09-10T16:39:11.426Z,62.25
2022-09-10T16:41:40.178Z,62.66
2022-09-10T16:44:08.497Z,63.08
2022-09-10T16:46:35.411Z,63.89
2022-09-10T16:49:02.093Z,64.53
2022-09-10T16:51:29.067Z,67.52
2022-09-10T16:54:02.552Z,73.82
2022-09-10T16:56:37.211Z,75.93
2022-09-10T16:59:07.272Z,77.29
2022-09-10T17:01:37.809Z,79.02
2022-09-10T17:04:06.539Z,81.15
2022-09-10T17:06:34.541Z,81.93
2022-09-10T17:09:02.005Z,81.93
2022-09-10T17:11:31.234Z,81.31
2022-09-10T17:14:00.760Z,81.59
2022-09-10T17:16:33.500Z,82.39
2022-09-10T17:19:11.039Z,83.51
2022-09-10T17:21:40.339Z,84.29
2022-09-10T17:24:08.039Z,85.30
2022-09-10T17:26:36.891Z,85.18
2022-09-10T17:29:08.803Z,85.70
2022-09-10T17:31:35.800Z,86.61
2022-09-10T17:34:03.270Z,86.63
2022-09-10T17:36:30.851Z,87.28
2022-09-10T17:38:58.834Z,88.08
2022-09-10T17:41:27.684Z,87.63
2022-09-10T17:43:56.103Z,87.29
2022-09-10T17:46:23.620Z,87.45
2022-09-10T17:48:51.559Z,87.88
2022-09-10T17:51:30.405Z,87.33
2022-09-10T17:53:57.756Z,87.37
2022-09-10T17:56:32.394Z,86.61
2022-09-10T17:59:01.273Z,86.32
2022-09-10T18:01:30.299Z,87.52
2022-09-10T18:03:56.983Z,87.60
2022-09-10T18:06:24.840Z,87.32
2022-09-10T18:08:51.443Z,87.83
2022-09-10T18:11:22.448Z,88.80
2022-09-10T18:13:51.823Z,88.17
2022-09-10T18:16:20.924Z,87.80
2022-09-10T18:18:55.375Z,88.23
2022-09-10T18:21:23.582Z,88.50
2022-09-10T18:23:55.866Z,88.48
2022-09-10T18:26:25.570Z,89.14
2022-09-10T18:28:59.179Z,88.72
2022-09-10T18:31:29.323Z,87.98
2022-09-10T18:33:58.252Z,87.96
2022-09-10T18:36:26.655Z,88.62
2022-09-10T18:38:52.946Z,88.97
2022-09-10T18:41:24.023Z,89.36
2022-09-10T18:43:52.635Z,89.56
2022-09-10T18:46:20.241Z,88.70
2022-09-10T18:48:47.427Z,88.67
2022-09-10T18:51:15.678Z,88.54
2022-09-10T18:53:44.598Z,88.35
2022-09-10T18:56:36.791Z,88.95
2022-09-10T18:59:06.648Z,88.01
2022-09-10T19:01:35.271Z,87.20
2022-09-10T19:04:06.371Z,87.44
2022-09-10T19:06:36.252Z,87.15
2022-09-10T19:09:10.320Z,86.92
2022-09-10T19:11:39.765Z,86.81
2022-09-10T19:14:13.797Z,87.13
2022-09-10T19:16:41.022Z,87.16
2022-09-10T19:19:14.827Z,87.23
2022-09-10T19:21:42.950Z,87.75
2022-09-10T19:24:09.333Z,87.33
2022-09-10T19:26:36.252Z,87.65
2022-09-10T19:29:03.996Z,87.15
2022-09-10T19:31:33.807Z,87.43
2022-09-10T19:34:05.464Z,87.65
2022-09-10T19:36:35.107Z,87.12
2022-09-10T19:39:07.641Z,86.97
2022-09-10T19:41:35.960Z,87.18
2022-09-10T19:44:04.171Z,87.54
2022-09-10T19:46:30.877Z,87.41
2022-09-10T19:48:59.169Z,87.44
2022-09-10T19:51:28.883Z,87.73
2022-09-10T19:53:56.404Z,88.17
2022-09-10T19:56:25.917Z,88.09
2022-09-10T19:58:55.010Z,88.08
2022-09-10T20:01:24.678Z,88.25
2022-09-10T20:03:53.260Z,88.09
2022-09-10T20:06:23.513Z,88.17
2022-09-10T20:08:50.055Z,88.24
2022-09-10T20:11:20.263Z,88.26
2022-09-10T20:13:48.213Z,88.71
2022-09-10T20:16:16.924Z,88.40
2022-09-10T20:18:44.280Z,88.15
2022-09-10T20:21:14.493Z,87.94
2022-09-10T20:23:43.580Z,88.30
2022-09-10T20:26:11.391Z,88.47
2022-09-10T20:28:38.230Z,88.11
2022-09-10T20:31:10.232Z,88.24
2022-09-10T20:33:40.880Z,88.24
2022-09-10T20:36:14.569Z,88.08
2022-09-10T20:38:42.842Z,88.41
2022-09-10T20:41:11.186Z,88.81
2022-09-10T20:43:38.666Z,88.67
2022-09-10T20:46:08.537Z,88.86
2022-09-10T20:48:34.864Z,88.90
2022-09-10T20:51:03.298Z,88.77
2022-09-10T20:53:34.788Z,88.83
2022-09-10T20:56:07.433Z,88.65
2022-09-10T20:58:36.688Z,88.55
2022-09-10T21:01:11.478Z,88.78
2022-09-10T21:03:43.066Z,88.97
2022-09-10T21:06:11.774Z,89.16
2022-09-10T21:08:40.425Z,89.43
2022-09-10T21:11:13.327Z,89.44
2022-09-10T21:13:50.643Z,89.51
2022-09-10T21:16:22.649Z,89.50
2022-09-10T21:18:54.583Z,89.42
2022-09-10T21:21:24.810Z,89.14
2022-09-10T21:23:53.735Z,89.19
2022-09-10T21:26:22.927Z,89.13
2022-09-10T21:28:57.620Z,89.11
2022-09-10T21:31:28.822Z,88.97
2022-09-10T21:34:01.892Z,89.22
2022-09-10T21:36:30.778Z,89.21
2022-09-10T21:38:59.738Z,88.96
2022-09-10T21:41:30.474Z,89.48
2022-09-10T21:43:58.550Z,89.86
2022-09-10T21:46:26.318Z,89.66
2022-09-10T21:48:53.331Z,89.57
2022-09-10T21:51:21.770Z,89.76
2022-09-10T21:53:54.600Z,89.87
2022-09-10T21:56:22.287Z,89.58
2022-09-10T21:58:50.289Z,89.28
2022-09-10T22:01:19.792Z,89.38
2022-09-10T22:03:48.037Z,89.23
2022-09-10T22:06:20.978Z,89.56
2022-09-10T22:08:49.584Z,89.40
2022-09-10T22:11:23.727Z,89.15
2022-09-10T22:13:53.551Z,89.18
2022-09-10T22:16:21.935Z,89.05
2022-09-10T22:18:49.767Z,89.10
2022-09-10T22:21:17.122Z,89.19
2022-09-10T22:23:44.398Z,89.10
2022-09-10T22:26:14.516Z,89.15
2022-09-10T22:28:43.031Z,89.09
2022-09-10T22:31:21.400Z,89.01
2022-09-10T22:33:53.565Z,89.03
2022-09-10T22:36:26.372Z,89.03
2022-09-10T22:38:58.629Z,88.98
2022-09-10T22:41:26.633Z,89.12
2022-09-10T22:43:53.548Z,89.04
2022-09-10T22:46:22.092Z,89.19
2022-09-10T22:48:48.466Z,89.18
2022-09-10T22:51:18.293Z,89.35
2022-09-10T22:53:45.993Z,89.22
2022-09-10T22:56:14.256Z,89.41
2022-09-10T22:58:42.209Z,89.40
2022-09-10T23:01:13.881Z,89.51
2022-09-10T23:03:42.166Z,89.30
2022-09-10T23:06:14.486Z,89.41
2022-09-10T23:08:46.395Z,89.24
2022-09-10T23:11:48.051Z,89.24
2022-09-10T23:14:19.408Z,89.35
2022-09-10T23:16:48.870Z,89.31
2022-09-10T23:19:18.594Z,89.34
2022-09-10T23:21:48.274Z,89.35
2022-09-10T23:24:18.288Z,89.57
2022-09-10T23:26:45.177Z,89.58
2022-09-10T23:29:12.816Z,89.56
2022-09-10T23:31:40.333Z,89.48
2022-09-10T23:34:11.566Z,89.49
2022-09-10T23:36:42.639Z,89.52
2022-09-10T23:39:15.986Z,89.41
2022-09-10T23:41:43.442Z,89.45
2022-09-10T23:44:10.806Z,89.34
2022-09-10T23:46:38.275Z,89.31
2022-09-10T23:49:06.931Z,89.31
2022-09-10T23:51:34.455Z,89.42
2022-09-10T23:54:02.285Z,89.65
2022-09-10T23:56:29.092Z,89.85
2022-09-10T23:58:59.055Z,89.77
